sensor_id;sensor_type;location;lat;lon;timestamp;temperature;humidity
46416;DHT22;32620;51.704;7.822;2023-12-20T00:00:02;7.40;99.90
46416;DHT22;32620;51.704;7.822;2023-12-20T00:02:28;7.30;99.90
46416;DHT22;32620;51.704;7.822;2023-12-20T00:04:54;7.30;99.90
46416;DHT22;32620;51.704;7.822;2023-12-20T00:07:19;7.30;99.90
46416;DHT22;32620;51.704;7.822;2023-12-20T00:09:45;7.20;99.90
46416;DHT22;32620;51.704;7.822;2023-12-20T00:12:10;7.20;99.90
46416;DHT22;32620;51.704;7.822;2023-12-20T00:14:36;7.20;99.90
46416;DHT22;32620;51.704;7.822;2023-12-20T00:17:01;7.20;99.90
46416;DHT22;32620;51.704;7.822;2023-12-20T00:19:27;7.20;99.90
46416;DHT22;32620;51.704;7.822;2023-12-20T00:21:52;7.10;99.90
46416;DHT22;32620;51.704;7.822;2023-12-20T00:24:18;7.20;99.90
46416;DHT22;32620;51.704;7.822;2023-12-20T00:26:43;7.20;99.90
46416;DHT22;32620;51.704;7.822;2023-12-20T00:29:09;7.10;99.90
46416;DHT22;32620;51.704;7.822;2023-12-20T00:31:34;7.10;99.90
46416;DHT22;32620;51.704;7.822;2023-12-20T00:34:01;7.10;99.90
46416;DHT22;32620;51.704;7.822;2023-12-20T00:36:26;7.10;99.90
46416;DHT22;32620;51.704;7.822;2023-12-20T00:38:52;7.10;99.90
46416;DHT22;32620;51.704;7.822;2023-12-20T00:41:18;7.10;99.90
46416;DHT22;32620;51.704;7.822;2023-12-20T00:43:43;7.00;99.90
46416;DHT22;32620;51.704;7.822;2023-12-20T00:46:09;7.00;99.90
46416;DHT22;32620;51.704;7.822;2023-12-20T00:48:35;6.90;99.90
46416;DHT22;32620;51.704;7.822;2023-12-20T00:51:00;6.80;99.90
46416;DHT22;32620;51.704;7.822;2023-12-20T00:53:26;6.80;99.90
46416;DHT22;32620;51.704;7.822;2023-12-20T00:55:51;6.80;99.90
46416;DHT22;32620;51.704;7.822;2023-12-20T00:58:17;6.80;99.90
46416;DHT22;32620;51.704;7.822;2023-12-20T01:00:42;6.80;99.90
46416;DHT22;32620;51.704;7.822;2023-12-20T01:03:09;6.80;99.90
46416;DHT22;32620;51.704;7.822;2023-12-20T01:05:34;6.80;99.90
46416;DHT22;32620;51.704;7.822;2023-12-20T01:08:00;6.90;99.90
46416;DHT22;32620;51.704;7.822;2023-12-20T01:10:28;6.90;99.90
46416;DHT22;32620;51.704;7.822;2023-12-20T01:12:54;6.80;99.90
46416;DHT22;32620;51.704;7.822;2023-12-20T01:15:20;6.80;99.90
46416;DHT22;32620;51.704;7.822;2023-12-20T01:17:46;6.90;99.90
46416;DHT22;32620;51.704;7.822;2023-12-20T01:20:11;6.80;99.90
46416;DHT22;32620;51.704;7.822;2023-12-20T01:22:37;6.80;99.90
46416;DHT22;32620;51.704;7.822;2023-12-20T01:25:02;6.70;99.90
46416;DHT22;32620;51.704;7.822;2023-12-20T01:27:28;6.80;99.90
46416;DHT22;32620;51.704;7.822;2023-12-20T01:29:54;6.80;99.90
46416;DHT22;32620;51.704;7.822;2023-12-20T01:32:20;6.70;99.90
46416;DHT22;32620;51.704;7.822;2023-12-20T01:34:45;6.60;99.90
46416;DHT22;32620;51.704;7.822;2023-12-20T01:37:11;6.60;99.90
46416;DHT22;32620;51.704;7.822;2023-12-20T01:39:36;6.50;99.90
46416;DHT22;32620;51.704;7.822;2023-12-20T01:42:02;6.50;99.90
46416;DHT22;32620;51.704;7.822;2023-12-20T01:44:27;6.40;99.90
46416;DHT22;32620;51.704;7.822;2023-12-20T01:46:53;6.40;99.90
46416;DHT22;32620;51.704;7.822;2023-12-20T01:49:19;6.40;99.90
46416;DHT22;32620;51.704;7.822;2023-12-20T01:51:46;6.40;99.90
46416;DHT22;32620;51.704;7.822;2023-12-20T01:54:12;6.40;99.90
46416;DHT22;32620;51.704;7.822;2023-12-20T01:56:38;6.40;99.90
46416;DHT22;32620;51.704;7.822;2023-12-20T01:59:04;6.40;99.90
46416;DHT22;32620;51.704;7.822;2023-12-20T02:01:31;6.30;99.90
46416;DHT22;32620;51.704;7.822;2023-12-20T02:03:57;6.30;99.90
46416;DHT22;32620;51.704;7.822;2023-12-20T02:06:24;6.30;99.90
46416;DHT22;32620;51.704;7.822;2023-12-20T02:08:54;6.30;99.90
46416;DHT22;32620;51.704;7.822;2023-12-20T02:11:20;6.30;99.90
46416;DHT22;32620;51.704;7.822;2023-12-20T02:13:46;6.30;99.90
46416;DHT22;32620;51.704;7.822;2023-12-20T02:16:12;6.30;99.90
46416;DHT22;32620;51.704;7.822;2023-12-20T02:18:37;6.30;99.90
46416;DHT22;32620;51.704;7.822;2023-12-20T02:21:05;6.30;99.90
46416;DHT22;32620;51.704;7.822;2023-12-20T02:23:31;6.30;99.90
46416;DHT22;32620;51.704;7.822;2023-12-20T02:25:56;6.20;99.90
46416;DHT22;32620;51.704;7.822;2023-12-20T02:28:22;6.20;99.90
46416;DHT22;32620;51.704;7.822;2023-12-20T02:30:48;6.20;99.90
46416;DHT22;32620;51.704;7.822;2023-12-20T02:33:15;6.30;99.90
46416;DHT22;32620;51.704;7.822;2023-12-20T02:35:41;6.30;99.90
46416;DHT22;32620;51.704;7.822;2023-12-20T02:38:06;6.20;99.90
46416;DHT22;32620;51.704;7.822;2023-12-20T02:40:32;6.30;99.90
46416;DHT22;32620;51.704;7.822;2023-12-20T02:42:57;6.30;99.90
46416;DHT22;32620;51.704;7.822;2023-12-20T02:45:23;6.30;99.90
46416;DHT22;32620;51.704;7.822;2023-12-20T02:47:48;6.30;99.90
46416;DHT22;32620;51.704;7.822;2023-12-20T02:50:14;6.30;99.90
46416;DHT22;32620;51.704;7.822;2023-12-20T02:52:39;6.30;99.90
46416;DHT22;32620;51.704;7.822;2023-12-20T02:55:05;6.50;99.90
46416;DHT22;32620;51.704;7.822;2023-12-20T02:57:31;6.50;99.90
46416;DHT22;32620;51.704;7.822;2023-12-20T02:59:57;6.40;99.90
46416;DHT22;32620;51.704;7.822;2023-12-20T03:02:23;6.40;99.90
46416;DHT22;32620;51.704;7.822;2023-12-20T03:04:48;6.40;99.90
46416;DHT22;32620;51.704;7.822;2023-12-20T03:07:14;6.40;99.90
46416;DHT22;32620;51.704;7.822;2023-12-20T03:09:39;6.30;99.90
46416;DHT22;32620;51.704;7.822;2023-12-20T03:12:05;6.30;99.90
46416;DHT22;32620;51.704;7.822;2023-12-20T03:14:30;6.30;99.90
46416;DHT22;32620;51.704;7.822;2023-12-20T03:16:56;6.20;99.90
46416;DHT22;32620;51.704;7.822;2023-12-20T03:19:21;6.20;99.90
46416;DHT22;32620;51.704;7.822;2023-12-20T03:21:47;6.20;99.90
46416;DHT22;32620;51.704;7.822;2023-12-20T03:24:12;6.30;99.90
46416;DHT22;32620;51.704;7.822;2023-12-20T03:26:38;6.30;99.90
46416;DHT22;32620;51.704;7.822;2023-12-20T03:29:03;6.40;99.90
46416;DHT22;32620;51.704;7.822;2023-12-20T03:31:29;6.40;99.90
46416;DHT22;32620;51.704;7.822;2023-12-20T03:33:54;6.40;99.90
46416;DHT22;32620;51.704;7.822;2023-12-20T03:36:20;6.40;99.90
46416;DHT22;32620;51.704;7.822;2023-12-20T03:38:46;6.30;99.90
46416;DHT22;32620;51.704;7.822;2023-12-20T03:41:11;6.30;99.90
46416;DHT22;32620;51.704;7.822;2023-12-20T03:43:37;6.30;99.90
46416;DHT22;32620;51.704;7.822;2023-12-20T03:46:03;6.40;99.90
46416;DHT22;32620;51.704;7.822;2023-12-20T03:48:31;6.40;99.90
46416;DHT22;32620;51.704;7.822;2023-12-20T03:50:57;6.30;99.90
46416;DHT22;32620;51.704;7.822;2023-12-20T03:53:22;6.40;99.90
46416;DHT22;32620;51.704;7.822;2023-12-20T03:55:48;6.40;99.90
46416;DHT22;32620;51.704;7.822;2023-12-20T03:58:14;6.40;99.90
46416;DHT22;32620;51.704;7.822;2023-12-20T04:00:39;6.40;99.90
46416;DHT22;32620;51.704;7.822;2023-12-20T04:03:05;6.40;99.90
46416;DHT22;32620;51.704;7.822;2023-12-20T04:05:30;6.40;99.90
46416;DHT22;32620;51.704;7.822;2023-12-20T04:07:56;6.40;99.90
46416;DHT22;32620;51.704;7.822;2023-12-20T04:10:21;6.40;99.90
46416;DHT22;32620;51.704;7.822;2023-12-20T04:12:47;6.30;99.90
46416;DHT22;32620;51.704;7.822;2023-12-20T04:15:13;6.30;99.90
46416;DHT22;32620;51.704;7.822;2023-12-20T04:17:38;6.20;99.90
46416;DHT22;32620;51.704;7.822;2023-12-20T04:20:04;6.10;99.90
46416;DHT22;32620;51.704;7.822;2023-12-20T04:22:30;6.10;99.90
46416;DHT22;32620;51.704;7.822;2023-12-20T04:24:56;6.10;99.90
46416;DHT22;32620;51.704;7.822;2023-12-20T04:27:21;6.00;99.90
46416;DHT22;32620;51.704;7.822;2023-12-20T04:29:47;6.10;99.90
46416;DHT22;32620;51.704;7.822;2023-12-20T04:32:12;6.00;99.90
46416;DHT22;32620;51.704;7.822;2023-12-20T04:34:38;6.00;99.90
46416;DHT22;32620;51.704;7.822;2023-12-20T04:37:03;6.00;99.90
46416;DHT22;32620;51.704;7.822;2023-12-20T04:39:29;6.10;99.90
46416;DHT22;32620;51.704;7.822;2023-12-20T04:41:55;6.10;99.90
46416;DHT22;32620;51.704;7.822;2023-12-20T04:44:20;6.10;99.90
46416;DHT22;32620;51.704;7.822;2023-12-20T04:46:46;6.10;99.90
46416;DHT22;32620;51.704;7.822;2023-12-20T04:49:11;6.10;99.90
46416;DHT22;32620;51.704;7.822;2023-12-20T04:51:37;6.10;99.90
46416;DHT22;32620;51.704;7.822;2023-12-20T04:54:03;6.20;99.90
46416;DHT22;32620;51.704;7.822;2023-12-20T04:56:29;6.20;99.90
46416;DHT22;32620;51.704;7.822;2023-12-20T04:58:54;6.30;99.90
46416;DHT22;32620;51.704;7.822;2023-12-20T05:01:20;6.30;99.90
46416;DHT22;32620;51.704;7.822;2023-12-20T05:03:46;6.30;99.90
46416;DHT22;32620;51.704;7.822;2023-12-20T05:06:11;6.30;99.90
46416;DHT22;32620;51.704;7.822;2023-12-20T05:08:37;6.30;99.90
46416;DHT22;32620;51.704;7.822;2023-12-20T05:11:03;6.40;99.90
46416;DHT22;32620;51.704;7.822;2023-12-20T05:13:28;6.40;99.90
46416;DHT22;32620;51.704;7.822;2023-12-20T05:15:54;6.30;99.90
46416;DHT22;32620;51.704;7.822;2023-12-20T05:18:20;6.40;99.90
46416;DHT22;32620;51.704;7.822;2023-12-20T05:20:46;6.30;99.90
46416;DHT22;32620;51.704;7.822;2023-12-20T05:23:12;6.40;99.90
46416;DHT22;32620;51.704;7.822;2023-12-20T05:25:38;6.30;99.90
46416;DHT22;32620;51.704;7.822;2023-12-20T05:28:04;6.30;99.90
46416;DHT22;32620;51.704;7.822;2023-12-20T05:30:30;6.20;99.90
46416;DHT22;32620;51.704;7.822;2023-12-20T05:32:55;6.20;99.90
46416;DHT22;32620;51.704;7.822;2023-12-20T05:35:21;6.20;99.90
46416;DHT22;32620;51.704;7.822;2023-12-20T05:37:48;6.20;99.90
46416;DHT22;32620;51.704;7.822;2023-12-20T05:40:14;6.20;99.90
46416;DHT22;32620;51.704;7.822;2023-12-20T05:42:40;6.20;99.90
46416;DHT22;32620;51.704;7.822;2023-12-20T05:45:05;6.20;99.90
46416;DHT22;32620;51.704;7.822;2023-12-20T05:47:31;6.10;99.90
46416;DHT22;32620;51.704;7.822;2023-12-20T05:49:57;6.10;99.90
46416;DHT22;32620;51.704;7.822;2023-12-20T05:52:22;6.10;99.90
46416;DHT22;32620;51.704;7.822;2023-12-20T05:54:48;6.20;99.90
46416;DHT22;32620;51.704;7.822;2023-12-20T05:57:14;6.20;99.90
46416;DHT22;32620;51.704;7.822;2023-12-20T05:59:39;6.20;99.90
46416;DHT22;32620;51.704;7.822;2023-12-20T06:02:05;6.20;99.90
46416;DHT22;32620;51.704;7.822;2023-12-20T06:04:31;6.30;99.90
46416;DHT22;32620;51.704;7.822;2023-12-20T06:06:56;6.30;99.90
46416;DHT22;32620;51.704;7.822;2023-12-20T06:09:22;6.30;99.90
46416;DHT22;32620;51.704;7.822;2023-12-20T06:11:48;6.30;99.90
46416;DHT22;32620;51.704;7.822;2023-12-20T06:14:13;6.30;99.90
46416;DHT22;32620;51.704;7.822;2023-12-20T06:16:39;6.30;99.90
46416;DHT22;32620;51.704;7.822;2023-12-20T06:19:04;6.30;99.90
46416;DHT22;32620;51.704;7.822;2023-12-20T06:21:30;6.30;99.90
46416;DHT22;32620;51.704;7.822;2023-12-20T06:23:58;6.30;99.90
46416;DHT22;32620;51.704;7.822;2023-12-20T06:26:24;6.40;99.90
46416;DHT22;32620;51.704;7.822;2023-12-20T06:28:49;6.30;99.90
46416;DHT22;32620;51.704;7.822;2023-12-20T06:31:15;6.40;99.90
46416;DHT22;32620;51.704;7.822;2023-12-20T06:33:40;6.40;99.90
46416;DHT22;32620;51.704;7.822;2023-12-20T06:36:06;6.40;99.90
46416;DHT22;32620;51.704;7.822;2023-12-20T06:38:32;6.40;99.90
46416;DHT22;32620;51.704;7.822;2023-12-20T06:40:57;6.40;99.90
46416;DHT22;32620;51.704;7.822;2023-12-20T06:43:24;6.40;99.90
46416;DHT22;32620;51.704;7.822;2023-12-20T06:45:49;6.40;99.90
46416;DHT22;32620;51.704;7.822;2023-12-20T06:48:16;6.40;99.90
46416;DHT22;32620;51.704;7.822;2023-12-20T06:50:41;6.40;99.90
46416;DHT22;32620;51.704;7.822;2023-12-20T06:53:07;6.40;99.90
46416;DHT22;32620;51.704;7.822;2023-12-20T06:55:34;6.40;99.90
46416;DHT22;32620;51.704;7.822;2023-12-20T06:58:01;6.40;99.90
46416;DHT22;32620;51.704;7.822;2023-12-20T07:00:27;6.40;99.90
46416;DHT22;32620;51.704;7.822;2023-12-20T07:02:53;6.40;99.90
46416;DHT22;32620;51.704;7.822;2023-12-20T07:05:19;6.40;99.90
46416;DHT22;32620;51.704;7.822;2023-12-20T07:07:46;6.40;99.90
46416;DHT22;32620;51.704;7.822;2023-12-20T07:10:12;6.40;99.90
46416;DHT22;32620;51.704;7.822;2023-12-20T07:12:38;6.40;99.90
46416;DHT22;32620;51.704;7.822;2023-12-20T07:15:07;6.40;99.90
46416;DHT22;32620;51.704;7.822;2023-12-20T07:17:33;6.40;99.90
46416;DHT22;32620;51.704;7.822;2023-12-20T07:19:59;6.40;99.90
46416;DHT22;32620;51.704;7.822;2023-12-20T07:22:29;6.40;99.90
46416;DHT22;32620;51.704;7.822;2023-12-20T07:24:57;6.40;99.90
46416;DHT22;32620;51.704;7.822;2023-12-20T07:27:22;6.40;99.90
46416;DHT22;32620;51.704;7.822;2023-12-20T07:37:08;6.40;99.90
46416;DHT22;32620;51.704;7.822;2023-12-20T07:46:54;6.50;99.90
46416;DHT22;32620;51.704;7.822;2023-12-20T07:51:46;6.50;99.90
46416;DHT22;32620;51.704;7.822;2023-12-20T07:56:38;6.50;99.90
46416;DHT22;32620;51.704;7.822;2023-12-20T07:59:05;6.50;99.90
46416;DHT22;32620;51.704;7.822;2023-12-20T08:01:31;6.50;99.90
46416;DHT22;32620;51.704;7.822;2023-12-20T08:06:22;6.50;99.90
46416;DHT22;32620;51.704;7.822;2023-12-20T08:08:48;6.60;99.90
46416;DHT22;32620;51.704;7.822;2023-12-20T08:11:14;6.60;99.90
46416;DHT22;32620;51.704;7.822;2023-12-20T08:13:39;6.70;99.90
46416;DHT22;32620;51.704;7.822;2023-12-20T08:16:05;6.60;99.90
46416;DHT22;32620;51.704;7.822;2023-12-20T08:18:31;6.60;99.90
46416;DHT22;32620;51.704;7.822;2023-12-20T08:20:56;6.70;99.90
46416;DHT22;32620;51.704;7.822;2023-12-20T08:23:22;6.70;99.90
46416;DHT22;32620;51.704;7.822;2023-12-20T08:25:47;6.70;99.90
46416;DHT22;32620;51.704;7.822;2023-12-20T08:28:14;6.70;99.90
46416;DHT22;32620;51.704;7.822;2023-12-20T08:33:06;6.70;99.90
46416;DHT22;32620;51.704;7.822;2023-12-20T08:35:36;6.70;99.90
46416;DHT22;32620;51.704;7.822;2023-12-20T08:45:22;6.80;99.90
46416;DHT22;32620;51.704;7.822;2023-12-20T08:47:47;6.80;99.90
46416;DHT22;32620;51.704;7.822;2023-12-20T09:09:51;6.90;99.90
